createdAt,value
2019-04-28T00:01:55.476Z,3.17
2019-04-28T00:06:55.055Z,3.40
2019-04-28T00:11:54.683Z,3.33
2019-04-28T00:16:54.247Z,4.33
2019-04-28T00:22:01.037Z,3.70
2019-04-28T00:27:02.859Z,4.07
2019-04-28T00:32:02.465Z,5.17
2019-04-28T00:37:08.068Z,8.30
2019-04-28T00:42:07.758Z,5.77
2019-04-28T00:47:07.546Z,9.03
2019-04-28T00:52:07.086Z,7.10
2019-04-28T00:57:06.639Z,9.33
2019-04-28T01:02:12.733Z,9.30
2019-04-28T01:07:12.286Z,9.60
2019-04-28T01:12:12.011Z,13.50
2019-04-28T01:17:17.452Z,8.00
2019-04-28T01:22:20.141Z,6.13
2019-04-28T01:27:50.322Z,10.70
2019-04-28T01:32:56.251Z,8.10
2019-04-28T01:37:55.795Z,8.63
2019-04-28T01:42:55.366Z,6.70
2019-04-28T01:47:54.983Z,7.87
2019-04-28T01:52:54.536Z,10.80
2019-04-28T01:57:54.086Z,7.50
2019-04-28T02:02:53.649Z,13.30
2019-04-28T02:07:54.173Z,8.03
2019-04-28T02:12:53.723Z,7.07
2019-04-28T02:17:53.292Z,14.17
2019-04-28T02:22:57.651Z,11.43
2019-04-28T02:27:57.265Z,8.63
2019-04-28T02:32:56.832Z,11.20
2019-04-28T02:37:56.417Z,20.50
2019-04-28T02:42:56.183Z,10.23
2019-04-28T02:48:01.002Z,10.87
2019-04-28T02:53:05.648Z,13.47
2019-04-28T02:58:05.412Z,14.43
2019-04-28T03:03:05.104Z,11.10
2019-04-28T03:08:04.815Z,10.73
2019-04-28T03:13:04.460Z,14.53
2019-04-28T03:18:04.173Z,14.97
2019-04-28T03:23:03.842Z,15.47
2019-04-28T03:28:16.119Z,18.10
2019-04-28T03:33:19.078Z,16.43
2019-04-28T03:38:21.201Z,15.10
2019-04-28T03:43:21.159Z,14.73
2019-04-28T03:48:21.189Z,13.40
2019-04-28T03:53:20.827Z,14.93
2019-04-28T03:58:21.854Z,11.40
2019-04-28T04:03:21.734Z,14.47
2019-04-28T04:08:21.293Z,14.40
2019-04-28T04:13:35.946Z,18.50
2019-04-28T04:18:53.141Z,9.33
2019-04-28T04:23:51.066Z,10.40
2019-04-28T04:28:51.700Z,11.83
2019-04-28T04:33:51.419Z,13.57
2019-04-28T04:38:51.515Z,10.63
2019-04-28T04:43:51.685Z,10.23
2019-04-28T04:48:52.240Z,10.67
2019-04-28T04:53:51.907Z,9.93
2019-04-28T04:58:51.599Z,15.60
2019-04-28T05:03:53.369Z,8.03
2019-04-28T05:08:52.906Z,8.50
2019-04-28T05:13:52.461Z,8.73
2019-04-28T05:18:52.035Z,11.27
2019-04-28T05:24:17.516Z,15.70
2019-04-28T05:29:19.984Z,13.00
2019-04-28T05:34:20.349Z,10.93
2019-04-28T05:39:19.951Z,14.00
2019-04-28T05:44:20.155Z,14.57
2019-04-28T05:49:29.660Z,22.07
2019-04-28T05:55:00.235Z,16.07
2019-04-28T06:00:22.638Z,21.27
2019-04-28T06:05:22.227Z,19.60
2019-04-28T06:10:21.861Z,20.43
2019-04-28T06:15:21.403Z,26.83
2019-04-28T06:20:20.994Z,17.10
2019-04-28T06:25:20.535Z,18.30
2019-04-28T06:30:20.579Z,22.27
2019-04-28T06:35:20.199Z,19.37
2019-04-28T06:40:19.743Z,18.33
2019-04-28T06:45:19.339Z,20.00
2019-04-28T06:50:18.890Z,17.97
2019-04-28T06:55:18.454Z,21.00
2019-04-28T07:00:18.126Z,14.33
2019-04-28T07:05:17.771Z,12.07
2019-04-28T07:10:17.335Z,14.97
2019-04-28T07:15:16.912Z,16.77
2019-04-28T07:20:36.756Z,13.70
2019-04-28T07:25:36.538Z,17.60
2019-04-28T07:30:37.831Z,13.27
2019-04-28T07:35:37.387Z,17.27
2019-04-28T07:40:36.942Z,19.80
2019-04-28T07:45:36.556Z,14.83
2019-04-28T07:50:36.098Z,11.90
2019-04-28T07:55:35.719Z,10.87
2019-04-28T08:00:35.348Z,11.20
2019-04-28T08:05:34.892Z,9.97
2019-04-28T08:10:34.442Z,9.37
2019-04-28T08:15:33.991Z,9.27
2019-04-28T08:20:34.368Z,7.30
2019-04-28T08:25:33.928Z,8.70
2019-04-28T08:30:33.583Z,8.20
2019-04-28T08:35:33.217Z,4.57
2019-04-28T08:40:32.767Z,10.17
2019-04-28T08:45:32.346Z,9.33
2019-04-28T08:50:31.878Z,4.67
2019-04-28T08:55:32.390Z,8.13
2019-04-28T09:00:31.918Z,8.30
2019-04-28T09:05:31.463Z,5.70
2019-04-28T09:10:31.000Z,8.63
2019-04-28T09:15:30.574Z,5.13
2019-04-28T09:20:30.129Z,10.73
2019-04-28T09:25:29.770Z,5.97
2019-04-28T09:30:29.433Z,2.27
2019-04-28T09:35:29.047Z,5.77
2019-04-28T09:40:28.611Z,6.50
2019-04-28T09:45:33.897Z,2.33
2019-04-28T09:50:33.522Z,9.20
2019-04-28T09:55:33.076Z,2.27
2019-04-28T10:00:33.395Z,2.50
2019-04-28T10:05:32.960Z,5.73
2019-04-28T10:10:32.655Z,6.97
2019-04-28T10:15:32.310Z,4.20
2019-04-28T10:20:31.870Z,5.40
2019-04-28T10:25:31.446Z,4.77
2019-04-28T10:30:31.986Z,2.13
2019-04-28T10:35:31.615Z,4.50
2019-04-28T10:40:39.437Z,7.13
2019-04-28T10:45:47.051Z,2.13
2019-04-28T10:50:46.775Z,3.57
2019-04-28T10:55:46.525Z,1.83
2019-04-28T11:00:46.333Z,4.13
2019-04-28T11:05:46.231Z,1.50
2019-04-28T11:10:46.910Z,1.80
2019-04-28T11:15:46.527Z,4.43
2019-04-28T11:20:46.100Z,1.53
2019-04-28T11:25:45.751Z,4.37
2019-04-28T11:30:45.365Z,2.07
2019-04-28T11:35:45.090Z,2.30
2019-04-28T11:40:44.729Z,4.30
2019-04-28T11:45:44.369Z,1.40
2019-04-28T11:50:43.919Z,3.23
2019-04-28T11:55:44.459Z,2.37
2019-04-28T12:00:44.344Z,4.67
2019-04-28T12:05:46.472Z,1.83
2019-04-28T12:10:55.565Z,1.60
2019-04-28T12:16:05.424Z,3.10
2019-04-28T12:21:05.050Z,2.27
2019-04-28T12:26:04.599Z,5.80
2019-04-28T12:31:04.202Z,1.70
2019-04-28T12:36:05.271Z,2.93
2019-04-28T12:41:04.949Z,2.90
2019-04-28T12:46:04.884Z,2.70
2019-04-28T12:51:04.703Z,5.10
2019-04-28T12:56:04.374Z,3.33
2019-04-28T13:01:24.587Z,4.53
2019-04-28T13:06:24.513Z,3.80
2019-04-28T13:11:24.047Z,5.90
2019-04-28T13:16:23.600Z,2.00
2019-04-28T13:21:24.174Z,3.10
2019-04-28T13:26:23.808Z,3.50
2019-04-28T13:31:23.367Z,2.07
2019-04-28T13:36:22.947Z,2.53
2019-04-28T13:41:22.522Z,2.77
2019-04-28T13:46:22.086Z,1.80
2019-04-28T13:51:21.722Z,3.07
2019-04-28T13:56:22.366Z,2.67
2019-04-28T14:01:32.643Z,1.87
2019-04-28T14:06:33.563Z,6.50
2019-04-28T14:11:33.157Z,1.70
2019-04-28T14:16:32.755Z,2.33
2019-04-28T14:21:32.354Z,2.70
2019-04-28T14:26:31.959Z,5.30
2019-04-28T14:31:31.523Z,7.20
2019-04-28T14:36:41.420Z,4.03
2019-04-28T14:41:32.443Z,2.77
2019-04-28T14:46:32.027Z,1.80
2019-04-28T14:51:31.655Z,2.57
2019-04-28T14:56:31.216Z,1.63
2019-04-28T15:02:08.586Z,1.50
2019-04-28T15:07:12.089Z,5.57
2019-04-28T15:12:11.668Z,2.13
2019-04-28T15:17:11.250Z,1.37
2019-04-28T15:22:10.982Z,1.40
2019-04-28T15:27:10.619Z,1.73
2019-04-28T15:32:10.390Z,3.03
2019-04-28T15:37:10.397Z,1.90
2019-04-28T15:42:10.101Z,3.03
2019-04-28T15:47:09.724Z,1.77
2019-04-28T15:52:09.295Z,1.23
2019-04-28T15:57:08.881Z,2.60
2019-04-28T16:02:08.642Z,3.13
2019-04-28T16:07:08.323Z,0.93
2019-04-28T16:12:08.413Z,2.50
2019-04-28T16:17:07.988Z,1.60
2019-04-28T16:22:07.602Z,3.03
2019-04-28T16:27:08.048Z,1.53
2019-04-28T16:32:09.803Z,1.20
2019-04-28T16:37:08.935Z,1.40
2019-04-28T16:42:08.502Z,2.57
2019-04-28T16:47:08.078Z,1.43
2019-04-28T16:52:07.625Z,5.60
2019-04-28T16:57:25.559Z,1.20
2019-04-28T17:02:30.555Z,3.13
2019-04-28T17:07:30.111Z,1.57
2019-04-28T17:12:29.671Z,1.40
2019-04-28T17:17:29.243Z,1.17
2019-04-28T17:22:28.783Z,2.57
2019-04-28T17:27:28.330Z,1.30
2019-04-28T17:32:27.915Z,1.07
2019-04-28T17:37:27.480Z,1.30
2019-04-28T17:42:28.170Z,2.20
2019-04-28T17:47:27.724Z,1.13
2019-04-28T17:52:27.364Z,2.50
2019-04-28T17:57:26.995Z,1.17
2019-04-28T18:02:45.677Z,5.50
2019-04-28T18:07:46.942Z,1.63
2019-04-28T18:12:59.512Z,1.87
2019-04-28T18:18:05.398Z,4.00
2019-04-28T18:23:04.967Z,2.73
2019-04-28T18:28:04.505Z,1.30
2019-04-28T18:33:10.588Z,5.33
2019-04-28T18:38:19.462Z,2.00
2019-04-28T18:43:24.214Z,4.10
2019-04-28T18:48:23.775Z,2.27
2019-04-28T18:53:23.368Z,1.87
2019-04-28T18:58:22.946Z,1.73
2019-04-28T19:03:22.955Z,3.00
2019-04-28T19:08:49.291Z,1.40
2019-04-28T19:13:52.574Z,1.37
2019-04-28T19:18:53.338Z,5.43
2019-04-28T19:23:54.235Z,3.40
2019-04-28T19:28:54.991Z,1.50
2019-04-28T19:33:54.681Z,2.83
2019-04-28T19:39:03.071Z,6.70
2019-04-28T19:43:55.542Z,5.80
2019-04-28T19:48:55.102Z,1.20
2019-04-28T19:53:54.694Z,3.17
2019-04-28T19:58:59.439Z,5.60
2019-04-28T20:03:59.011Z,2.40
2019-04-28T20:08:58.590Z,1.80
2019-04-28T20:13:58.159Z,1.70
2019-04-28T20:18:57.699Z,6.03
2019-04-28T20:23:57.258Z,1.53
2019-04-28T20:28:56.810Z,1.70
2019-04-28T20:33:56.380Z,1.73
2019-04-28T20:39:00.088Z,2.77
2019-04-28T20:44:00.393Z,2.00
2019-04-28T20:48:59.951Z,2.00
2019-04-28T20:53:59.503Z,1.80
2019-04-28T20:58:59.039Z,3.37
2019-04-28T21:03:58.607Z,4.33
2019-04-28T21:08:58.145Z,1.83
2019-04-28T21:13:57.727Z,1.83
2019-04-28T21:18:57.289Z,2.40
2019-04-28T21:23:56.847Z,2.40
2019-04-28T21:28:56.389Z,2.20
2019-04-28T21:33:55.972Z,3.93
2019-04-28T21:38:55.587Z,3.50
2019-04-28T21:44:16.560Z,3.13
2019-04-28T21:49:24.990Z,2.50
2019-04-28T21:54:24.539Z,3.77
2019-04-28T21:59:24.295Z,2.50
2019-04-28T22:04:23.895Z,5.17
2019-04-28T22:09:23.544Z,2.20
2019-04-28T22:14:23.154Z,6.10
2019-04-28T22:19:22.698Z,2.67
2019-04-28T22:24:39.358Z,5.53
2019-04-28T22:29:38.914Z,4.50
2019-04-28T22:34:38.458Z,2.77
2019-04-28T22:39:38.976Z,2.57
2019-04-28T22:44:40.151Z,2.37
2019-04-28T22:49:39.696Z,2.10
2019-04-28T22:54:58.371Z,1.70
2019-04-28T22:59:58.595Z,1.97
2019-04-28T23:05:01.376Z,3.60
2019-04-28T23:10:02.880Z,1.87
2019-04-28T23:15:06.067Z,2.07
2019-04-28T23:20:09.478Z,2.87
2019-04-28T23:25:09.736Z,2.50
2019-04-28T23:30:10.122Z,2.43
2019-04-28T23:35:09.826Z,3.93
2019-04-28T23:40:09.445Z,2.83
2019-04-28T23:45:12.084Z,2.57
2019-04-28T23:50:12.169Z,3.80
2019-04-28T23:55:12.095Z,2.87
